Ana Sayfa
METAR-TAF:

METAR-TAF

Havaalanları :

Detroit, Michigan, Amerika Birleşik Devletleri

Enlem: 42-14-12N, Boylam: 083-31-34W, yükseklik: 218 m

Güncel hava durumu gözlemi

Rapor saat 15:53 UTC de 48 dakika önce yapıldı.
Rüzgar güneybatıdan 11 kt
Sıcaklık 3°C
Nem 44%
Basınç 1024 hPa
Görüş mesafesi: 16.1 km
Açık gökyüzü

METAR: KYIP 221553Z 23011KT 10SM CLR 03/M08 A3024 RMK AO2 SLP244 T00281083

Saat: 11:41 (16:41 UTC)

Tahmin

Rapor saat 11:20 UTC de 5 saat ve 21 dakika önce yapıldı.
Ayın 22'si saat 12 UTC'den ayın 23'si saat 12 UTC'ye kadar geçerli Tahmin
Rüzgar güneybatıdan 12 kt
Görüş mesafesi: 10 km
Açık gökyüzü
Ayın 22'si saat 1800 UTC'den
Rüzgar güneybatıdan 14 kt ve 20 kt'a kadar ani rüzgarlar
Görüş mesafesi: 10 km
Açık gökyüzü
Ayın 23'si saat 0000 UTC'den
Rüzgar güneybatıdan 8 kt
Görüş mesafesi: 10 km
25000 ft yükseklikte parçalı bulutlu

TAF: KYIP 221120Z 2212/2312 23012KT P6SM SKC FM221800 23014G20KT P6SM SKC FM230000 22008KT P6SM SCT250

4.000'den fazla havaalanı için hava durumu gözlemleri ve tahminleri (METAR ve TAF raporları).

Kullanılabilir istasyonlar harita üzerinde sarı ve kırmızı noktalarla gösterilir.

İstasyonun adını görmek için fareyi noktanın üzerinde gezdirin.

Sonrasında hava gözlem ve tahminlerini görmek için tıklayın.

Haritayı değiştirmek için: yaklaştırmak için siyah artı işaretli yeşil düğmeye ve uzaklaştırmak için de eksi işaretli düğmeye hızla tıklayın; bitişik haritalar için yeşil okları kullanın.


METAR-TAF: